createdAt,value
2022-11-24T00:02:07.905Z,8.22
2022-11-24T00:04:55.883Z,8.33
2022-11-24T00:07:45.224Z,8.21
2022-11-24T00:10:34.110Z,8.36
2022-11-24T00:13:22.041Z,8.44
2022-11-24T00:16:12.579Z,8.43
2022-11-24T00:19:02.281Z,8.52
2022-11-24T00:21:50.228Z,8.59
2022-11-24T00:24:39.459Z,8.58
2022-11-24T00:27:27.372Z,8.56
2022-11-24T00:30:15.434Z,8.64
2022-11-24T00:33:03.358Z,8.66
2022-11-24T00:35:55.900Z,8.63
2022-11-24T00:38:44.270Z,8.55
2022-11-24T00:41:33.872Z,8.45
2022-11-24T00:44:21.803Z,8.45
2022-11-24T00:47:09.811Z,7.66
2022-11-24T00:49:57.764Z,8.31
2022-11-24T00:52:45.668Z,8.12
2022-11-24T00:55:33.582Z,8.14
2022-11-24T00:58:23.362Z,8.01
2022-11-24T01:01:13.881Z,7.97
2022-11-24T01:04:02.462Z,7.90
2022-11-24T01:06:50.339Z,8.03
2022-11-24T01:09:38.739Z,8.11
2022-11-24T01:12:26.620Z,8.07
2022-11-24T01:15:15.971Z,8.26
2022-11-24T01:18:04.007Z,8.27
2022-11-24T01:20:51.953Z,8.25
2022-11-24T01:23:40.099Z,8.21
2022-11-24T01:26:27.995Z,8.30
2022-11-24T01:29:15.964Z,8.34
2022-11-24T01:32:05.804Z,8.15
2022-11-24T01:34:53.703Z,8.32
2022-11-24T01:37:41.583Z,8.28
2022-11-24T01:40:29.923Z,8.26
2022-11-24T01:43:19.959Z,8.15
2022-11-24T01:46:17.873Z,8.27
2022-11-24T01:49:14.513Z,8.09
2022-11-24T01:52:07.908Z,8.18
2022-11-24T01:54:58.576Z,8.20
2022-11-24T01:57:51.088Z,8.39
2022-11-24T02:00:41.114Z,8.43
2022-11-24T02:03:34.946Z,8.25
2022-11-24T02:06:28.392Z,8.18
2022-11-24T02:09:22.879Z,8.44
2022-11-24T02:12:10.919Z,8.35
2022-11-24T02:15:00.235Z,8.32
2022-11-24T02:17:48.106Z,8.31
2022-11-24T02:20:36.516Z,8.41
2022-11-24T02:23:31.973Z,8.45
2022-11-24T02:26:28.851Z,8.53
2022-11-24T02:29:17.119Z,8.51
2022-11-24T02:32:08.354Z,8.54
2022-11-24T02:35:01.924Z,8.49
2022-11-24T02:37:49.897Z,8.52
2022-11-24T02:40:38.288Z,8.48
2022-11-24T02:43:33.304Z,8.41
2022-11-24T02:46:21.360Z,8.38
2022-11-24T02:49:09.385Z,8.41
2022-11-24T02:51:57.760Z,8.20
2022-11-24T02:54:45.755Z,8.19
2022-11-24T02:57:33.743Z,8.16
2022-11-24T03:00:23.122Z,8.29
2022-11-24T03:03:11.232Z,8.26
2022-11-24T03:05:59.171Z,8.19
2022-11-24T03:08:47.081Z,8.19
2022-11-24T03:11:34.968Z,8.29
2022-11-24T03:14:22.869Z,8.13
2022-11-24T03:17:12.720Z,8.08
2022-11-24T03:20:04.996Z,8.22
2022-11-24T03:22:53.401Z,8.28
2022-11-24T03:25:41.275Z,8.25
2022-11-24T03:28:29.136Z,8.17
2022-11-24T03:31:17.338Z,8.22
2022-11-24T03:34:06.597Z,8.27
2022-11-24T03:36:54.470Z,8.27
2022-11-24T03:39:42.602Z,8.29
2022-11-24T03:42:30.483Z,8.35
2022-11-24T03:48:27.125Z,8.43
2022-11-24T03:51:16.455Z,8.46
2022-11-24T03:54:04.552Z,8.47
2022-11-24T03:56:52.886Z,8.44
2022-11-24T03:59:41.048Z,8.63
2022-11-24T04:02:28.985Z,8.70
2022-11-24T04:05:17.084Z,8.68
2022-11-24T04:08:07.012Z,8.48
2022-11-24T04:10:55.464Z,8.69
2022-11-24T04:13:42.382Z,8.66
2022-11-24T04:16:30.322Z,8.66
2022-11-24T04:19:18.484Z,8.60
2022-11-24T04:22:06.369Z,8.53
2022-11-24T04:24:55.613Z,8.74
2022-11-24T04:27:43.893Z,8.80
2022-11-24T04:30:31.802Z,8.66
2022-11-24T04:33:19.691Z,8.78
2022-11-24T04:36:07.936Z,8.66
2022-11-24T04:39:25.933Z,8.85
2022-11-24T04:42:05.235Z,8.68
2022-11-24T04:44:53.168Z,8.86
2022-11-24T04:47:41.092Z,8.86
2022-11-24T04:50:28.976Z,8.89
2022-11-24T04:53:16.906Z,8.88
2022-11-24T04:56:06.525Z,8.70
2022-11-24T04:58:55.756Z,8.78
2022-11-24T05:01:44.057Z,8.91
2022-11-24T05:04:32.464Z,9.08
2022-11-24T05:07:20.720Z,9.04
2022-11-24T05:10:27.029Z,8.85
2022-11-24T05:13:14.924Z,9.00
2022-11-24T05:16:04.509Z,8.94
2022-11-24T05:18:52.423Z,8.95
2022-11-24T05:21:40.443Z,8.93
2022-11-24T05:24:28.347Z,8.93
2022-11-24T05:27:16.328Z,8.92
2022-11-24T05:30:05.073Z,8.93
2022-11-24T05:32:54.334Z,8.96
2022-11-24T05:35:42.490Z,9.03
2022-11-24T05:38:30.586Z,9.00
2022-11-24T05:41:18.482Z,8.89
2022-11-24T05:44:06.591Z,8.99
2022-11-24T05:46:54.615Z,8.95
2022-11-24T05:49:43.908Z,8.98
2022-11-24T05:52:31.825Z,9.04
2022-11-24T05:55:20.431Z,8.80
2022-11-24T05:58:09.790Z,8.87
2022-11-24T06:00:57.714Z,8.94
2022-11-24T06:03:45.576Z,9.05
2022-11-24T06:06:34.824Z,9.10
2022-11-24T06:09:22.751Z,8.91
2022-11-24T06:12:11.932Z,8.91
2022-11-24T06:14:59.831Z,8.85
2022-11-24T06:17:53.730Z,8.81
2022-11-24T06:20:42.244Z,8.85
2022-11-24T06:23:35.359Z,8.83
2022-11-24T06:26:23.243Z,9.04
2022-11-24T06:29:11.229Z,8.99
2022-11-24T06:31:59.192Z,8.76
2022-11-24T06:34:47.197Z,8.51
2022-11-24T06:37:37.004Z,8.26
2022-11-24T06:40:26.294Z,8.39
2022-11-24T06:43:15.078Z,8.27
2022-11-24T06:46:03.378Z,8.23
2022-11-24T06:48:52.275Z,8.13
2022-11-24T06:51:40.170Z,8.06
2022-11-24T06:54:28.127Z,8.04
2022-11-24T06:57:17.352Z,7.92
2022-11-24T07:00:07.778Z,7.93
2022-11-24T07:02:55.780Z,7.96
2022-11-24T07:05:23.340Z,7.97
2022-11-24T07:07:51.184Z,8.05
2022-11-24T07:10:19.348Z,7.95
2022-11-24T07:12:48.366Z,8.01
2022-11-24T07:15:16.050Z,8.05
2022-11-24T07:17:43.639Z,7.99
2022-11-24T07:20:11.632Z,8.08
2022-11-24T07:22:39.288Z,8.03
2022-11-24T07:25:09.669Z,8.01
2022-11-24T07:27:38.003Z,8.14
2022-11-24T07:30:08.493Z,8.00
2022-11-24T07:32:36.169Z,8.12
2022-11-24T07:35:03.685Z,8.12
2022-11-24T07:37:32.041Z,8.00
2022-11-24T07:39:59.809Z,7.98
2022-11-24T07:42:28.385Z,8.06
2022-11-24T07:44:56.066Z,7.94
2022-11-24T07:47:25.087Z,7.91
2022-11-24T07:49:52.732Z,8.06
2022-11-24T07:52:20.389Z,8.05
2022-11-24T07:54:48.007Z,8.10
2022-11-24T07:57:15.686Z,7.83
2022-11-24T07:59:43.308Z,8.12
2022-11-24T08:02:13.155Z,8.03
2022-11-24T08:04:42.137Z,8.09
2022-11-24T08:07:09.897Z,8.13
2022-11-24T08:09:37.583Z,8.11
2022-11-24T08:12:05.607Z,8.21
2022-11-24T08:14:33.404Z,8.14
2022-11-24T08:17:01.315Z,8.01
2022-11-24T08:19:28.956Z,8.13
2022-11-24T08:21:57.899Z,8.23
2022-11-24T08:24:25.592Z,8.24
2022-11-24T08:26:53.228Z,8.29
2022-11-24T08:29:20.929Z,8.26
2022-11-24T08:31:48.585Z,8.33
2022-11-24T08:34:16.247Z,8.47
2022-11-24T08:36:43.867Z,8.48
2022-11-24T08:39:12.964Z,8.62
2022-11-24T08:41:40.593Z,8.74
2022-11-24T08:44:10.567Z,8.67
2022-11-24T08:46:38.536Z,8.79
2022-11-24T08:49:07.156Z,8.73
2022-11-24T08:51:34.972Z,8.74
2022-11-24T08:54:03.159Z,8.82
2022-11-24T08:56:33.785Z,8.92
2022-11-24T08:59:01.851Z,8.94
2022-11-24T09:01:30.848Z,8.83
2022-11-24T09:03:58.722Z,8.81
2022-11-24T09:06:30.699Z,8.58
2022-11-24T09:08:59.273Z,8.74
2022-11-24T09:11:27.980Z,8.79
2022-11-24T09:13:57.202Z,8.96
2022-11-24T09:16:27.150Z,9.06
2022-11-24T09:18:59.571Z,9.09
2022-11-24T09:21:27.746Z,9.24
2022-11-24T09:23:56.423Z,9.19
2022-11-24T09:26:26.804Z,9.51
2022-11-24T09:28:57.542Z,9.72
2022-11-24T09:31:27.639Z,9.67
2022-11-24T09:33:55.857Z,9.48
2022-11-24T09:36:24.666Z,9.44
2022-11-24T09:38:52.360Z,9.42
2022-11-24T09:41:31.111Z,9.34
2022-11-24T09:44:08.401Z,9.40
2022-11-24T09:46:44.400Z,9.43
2022-11-24T09:49:17.603Z,9.49
2022-11-24T09:51:48.038Z,9.66
2022-11-24T09:54:20.864Z,9.49
2022-11-24T09:56:51.176Z,9.63
2022-11-24T09:59:22.789Z,9.67
2022-11-24T10:01:52.267Z,9.49
2022-11-24T10:04:23.407Z,9.44
2022-11-24T10:07:01.023Z,9.39
2022-11-24T10:09:44.241Z,9.44
2022-11-24T10:12:23.700Z,9.56
2022-11-24T10:15:18.821Z,9.77
2022-11-24T10:18:16.754Z,9.79
2022-11-24T10:20:55.677Z,9.90
2022-11-24T10:23:40.780Z,10.00
2022-11-24T10:26:13.430Z,10.10
2022-11-24T10:28:45.834Z,10.24
2022-11-24T10:31:24.973Z,10.45
2022-11-24T10:33:52.745Z,10.55
2022-11-24T10:36:26.417Z,10.80
2022-11-24T10:39:01.950Z,10.96
2022-11-24T10:41:40.565Z,11.07
2022-11-24T10:44:13.579Z,11.42
2022-11-24T10:46:43.244Z,11.16
2022-11-24T10:49:18.916Z,11.23
2022-11-24T10:52:01.354Z,11.44
2022-11-24T10:54:29.748Z,11.44
2022-11-24T10:56:57.447Z,11.44
2022-11-24T10:59:37.374Z,11.25
2022-11-24T11:02:32.469Z,11.20
2022-11-24T11:05:20.339Z,11.35
2022-11-24T11:07:49.446Z,11.25
2022-11-24T11:10:22.710Z,11.14
2022-11-24T11:12:50.992Z,10.92
2022-11-24T11:15:24.285Z,10.97
2022-11-24T11:17:57.208Z,11.12
2022-11-24T11:20:29.609Z,11.50
2022-11-24T11:23:01.427Z,11.88
2022-11-24T11:25:33.603Z,12.12
2022-11-24T11:28:27.611Z,11.81
2022-11-24T11:31:19.662Z,11.67
2022-11-24T11:34:03.687Z,11.23
2022-11-24T11:36:34.027Z,11.23
2022-11-24T11:39:04.522Z,11.32
2022-11-24T11:41:36.892Z,11.16
2022-11-24T11:44:34.331Z,11.32
2022-11-24T11:47:09.868Z,11.17
2022-11-24T11:49:39.496Z,11.05
2022-11-24T11:52:30.153Z,11.41
2022-11-24T11:55:27.884Z,11.07
2022-11-24T11:58:08.157Z,11.07
2022-11-24T12:00:39.773Z,11.25
2022-11-24T12:03:33.097Z,11.16
2022-11-24T12:06:09.661Z,11.34
2022-11-24T12:09:17.943Z,11.54
2022-11-24T12:11:42.857Z,11.69
2022-11-24T12:14:25.540Z,11.86
2022-11-24T12:17:02.201Z,11.98
2022-11-24T12:19:46.626Z,11.89
2022-11-24T12:22:23.255Z,11.89
2022-11-24T12:24:58.484Z,11.96
2022-11-24T12:27:40.039Z,12.04
2022-11-24T12:30:13.626Z,11.75
2022-11-24T12:33:02.887Z,12.04
2022-11-24T12:35:37.078Z,11.85
2022-11-24T12:38:20.597Z,11.73
2022-11-24T12:41:39.668Z,11.67
2022-11-24T12:44:00.698Z,11.71
2022-11-24T12:46:36.109Z,11.66
2022-11-24T12:49:13.742Z,11.56
2022-11-24T12:51:45.527Z,11.68
2022-11-24T12:54:15.437Z,11.48
2022-11-24T12:56:48.018Z,11.60
2022-11-24T12:59:35.456Z,11.54
2022-11-24T13:02:15.237Z,11.50
2022-11-24T13:04:50.868Z,11.51
2022-11-24T13:07:25.246Z,11.66
2022-11-24T13:10:55.728Z,11.47
2022-11-24T13:13:19.528Z,11.49
2022-11-24T13:19:10.343Z,11.69
2022-11-24T13:21:50.841Z,11.59
2022-11-24T13:24:25.107Z,11.23
2022-11-24T13:26:54.967Z,11.21
2022-11-24T13:29:34.741Z,11.18
2022-11-24T13:32:42.083Z,11.02
2022-11-24T13:35:16.360Z,10.96
2022-11-24T13:37:51.515Z,10.72
2022-11-24T13:40:59.660Z,10.76
2022-11-24T13:43:31.288Z,10.73
2022-11-24T13:45:58.969Z,10.54
2022-11-24T13:49:03.706Z,10.46
2022-11-24T13:51:33.016Z,10.45
2022-11-24T13:54:02.252Z,10.62
2022-11-24T13:56:31.556Z,10.59
2022-11-24T13:59:02.019Z,10.55
2022-11-24T14:01:32.303Z,10.78
2022-11-24T14:07:05.577Z,11.13
2022-11-24T14:09:38.377Z,11.12
2022-11-24T14:12:13.471Z,11.06
2022-11-24T14:14:41.300Z,10.94
2022-11-24T14:17:16.733Z,10.98
2022-11-24T14:19:45.932Z,11.10
2022-11-24T14:22:17.885Z,11.14
2022-11-24T14:24:47.005Z,11.19
2022-11-24T14:27:17.491Z,11.14
2022-11-24T14:29:56.370Z,11.05
2022-11-24T14:32:24.776Z,11.04
2022-11-24T14:34:54.324Z,10.95
2022-11-24T14:37:23.675Z,10.74
2022-11-24T14:39:51.270Z,10.73
2022-11-24T14:42:22.188Z,10.62
2022-11-24T14:44:54.171Z,10.60
2022-11-24T14:47:31.217Z,10.74
2022-11-24T14:50:08.603Z,10.72
2022-11-24T14:52:44.928Z,10.61
2022-11-24T14:55:26.215Z,10.68
2022-11-24T14:57:53.910Z,10.73
2022-11-24T15:00:28.927Z,10.76
2022-11-24T15:03:09.350Z,10.81
2022-11-24T15:05:55.531Z,10.82
2022-11-24T15:08:26.172Z,10.73
2022-11-24T15:11:01.892Z,10.72
2022-11-24T15:13:33.973Z,10.65
2022-11-24T15:16:04.543Z,10.55
2022-11-24T15:18:40.143Z,10.40
2022-11-24T15:21:07.921Z,10.27
2022-11-24T15:23:37.737Z,10.18
2022-11-24T15:26:30.211Z,10.10
2022-11-24T15:28:59.765Z,10.04
2022-11-24T15:31:27.450Z,10.01
2022-11-24T15:33:55.091Z,9.97
2022-11-24T15:36:22.739Z,9.90
2022-11-24T15:38:52.047Z,9.75
2022-11-24T15:41:22.220Z,9.65
2022-11-24T15:43:49.886Z,9.46
2022-11-24T15:46:17.578Z,9.24
2022-11-24T15:48:45.231Z,8.89
2022-11-24T15:51:15.242Z,8.66
2022-11-24T15:53:46.245Z,8.45
2022-11-24T15:56:20.102Z,8.34
2022-11-24T15:58:48.425Z,8.22
2022-11-24T16:01:16.153Z,8.34
2022-11-24T16:03:47.498Z,8.32
2022-11-24T16:06:24.056Z,8.34
2022-11-24T16:08:53.231Z,8.25
2022-11-24T16:11:22.817Z,8.10
2022-11-24T16:13:53.488Z,8.00
2022-11-24T16:16:23.281Z,7.82
2022-11-24T16:18:51.234Z,7.73
2022-11-24T16:21:19.116Z,6.72
2022-11-24T16:23:47.735Z,7.56
2022-11-24T16:26:15.408Z,7.43
2022-11-24T16:28:45.623Z,7.31
2022-11-24T16:31:15.565Z,7.31
2022-11-24T16:33:44.592Z,7.36
2022-11-24T16:36:12.812Z,7.46
2022-11-24T16:38:40.556Z,7.62
2022-11-24T16:41:10.212Z,7.62
2022-11-24T16:43:38.106Z,7.40
2022-11-24T16:46:19.427Z,7.43
2022-11-24T16:48:48.615Z,7.37
2022-11-24T16:51:17.109Z,7.37
2022-11-24T16:53:45.221Z,7.19
2022-11-24T16:56:14.239Z,7.16
2022-11-24T16:58:42.149Z,7.09
2022-11-24T17:01:13.711Z,7.19
2022-11-24T17:03:41.827Z,7.18
2022-11-24T17:06:11.216Z,7.17
2022-11-24T17:08:40.596Z,7.40
2022-11-24T17:11:08.832Z,7.31
2022-11-24T17:13:36.574Z,7.22
2022-11-24T17:16:05.772Z,7.21
2022-11-24T17:18:35.412Z,6.69
2022-11-24T17:21:09.200Z,7.03
2022-11-24T17:23:37.925Z,7.04
2022-11-24T17:26:07.031Z,6.92
2022-11-24T17:28:35.113Z,6.89
2022-11-24T17:31:07.396Z,6.80
2022-11-24T17:33:36.959Z,7.17
2022-11-24T17:36:05.444Z,7.24
2022-11-24T17:38:33.223Z,7.10
2022-11-24T17:41:00.824Z,6.96
2022-11-24T17:43:28.489Z,7.02
2022-11-24T17:45:57.186Z,6.78
2022-11-24T17:48:25.566Z,7.03
2022-11-24T17:51:01.310Z,7.29
2022-11-24T17:53:29.285Z,7.56
2022-11-24T17:56:00.720Z,7.63
2022-11-24T17:58:29.016Z,7.61
2022-11-24T18:00:56.870Z,7.58
2022-11-24T18:03:25.556Z,7.75
2022-11-24T18:05:53.218Z,7.97
2022-11-24T18:08:22.195Z,7.92
2022-11-24T18:10:49.829Z,7.90
2022-11-24T18:13:34.196Z,7.99
2022-11-24T18:16:07.982Z,8.15
2022-11-24T18:18:40.135Z,7.46
2022-11-24T18:21:12.597Z,8.18
2022-11-24T18:23:42.436Z,8.27
2022-11-24T18:26:12.857Z,8.16
2022-11-24T18:28:40.539Z,8.28
2022-11-24T18:31:11.588Z,8.53
2022-11-24T18:33:40.457Z,8.82
2022-11-24T18:36:09.342Z,8.74
2022-11-24T18:38:37.594Z,8.81
2022-11-24T18:41:08.156Z,8.71
2022-11-24T18:43:38.033Z,8.91
2022-11-24T18:46:07.596Z,8.83
2022-11-24T18:48:35.936Z,8.91
2022-11-24T18:51:03.911Z,8.88
2022-11-24T18:53:31.840Z,8.24
2022-11-24T18:56:00.871Z,8.44
2022-11-24T18:58:32.905Z,8.47
2022-11-24T19:01:08.022Z,8.49
2022-11-24T19:03:37.987Z,8.22
2022-11-24T19:06:06.756Z,8.24
2022-11-24T19:08:34.722Z,7.99
2022-11-24T19:11:02.568Z,7.44
2022-11-24T19:13:31.566Z,7.76
2022-11-24T19:16:00.270Z,7.79
2022-11-24T19:18:29.981Z,7.86
2022-11-24T19:20:58.176Z,7.97
2022-11-24T19:23:25.862Z,8.14
2022-11-24T19:25:53.450Z,8.51
2022-11-24T19:28:21.110Z,8.42
2022-11-24T19:30:50.177Z,8.28
2022-11-24T19:33:18.797Z,7.94
2022-11-24T19:35:46.461Z,7.71
2022-11-24T19:38:15.305Z,7.54
2022-11-24T19:40:43.031Z,7.19
2022-11-24T19:43:10.634Z,7.42
2022-11-24T19:45:43.752Z,7.31
2022-11-24T19:48:12.903Z,7.30
2022-11-24T19:50:40.595Z,7.12
2022-11-24T19:53:08.189Z,6.98
2022-11-24T19:55:35.829Z,6.83
2022-11-24T19:58:03.421Z,6.82
2022-11-24T20:00:32.185Z,6.71
2022-11-24T20:03:00.044Z,6.67
2022-11-24T20:05:29.119Z,6.63
2022-11-24T20:07:56.787Z,6.70
2022-11-24T20:10:24.765Z,6.74
2022-11-24T20:12:52.425Z,6.72
2022-11-24T20:15:20.537Z,6.78
2022-11-24T20:17:48.183Z,6.75
2022-11-24T20:20:15.895Z,6.85
2022-11-24T20:22:44.913Z,6.87
2022-11-24T20:25:12.590Z,6.73
2022-11-24T20:27:40.174Z,6.85
2022-11-24T20:30:10.368Z,6.46
2022-11-24T20:32:37.980Z,6.81
2022-11-24T20:35:06.171Z,6.83
2022-11-24T20:37:34.027Z,6.67
2022-11-24T20:40:04.150Z,6.61
2022-11-24T20:42:32.736Z,6.55
2022-11-24T20:45:00.784Z,6.41
2022-11-24T20:47:30.696Z,6.43
2022-11-24T20:49:58.362Z,6.24
2022-11-24T20:52:26.022Z,6.34
2022-11-24T20:54:53.636Z,6.31
2022-11-24T20:57:22.665Z,6.36
2022-11-24T20:59:52.242Z,6.40
2022-11-24T21:02:21.065Z,6.27
2022-11-24T21:05:09.238Z,6.15
2022-11-24T21:07:57.197Z,6.14
2022-11-24T21:10:53.458Z,6.13
2022-11-24T21:13:45.592Z,6.03
2022-11-24T21:16:35.611Z,6.23
2022-11-24T21:19:23.651Z,6.20
2022-11-24T21:22:11.553Z,6.62
2022-11-24T21:24:59.451Z,6.83
2022-11-24T21:27:47.358Z,7.42
2022-11-24T21:30:37.379Z,7.71
2022-11-24T21:33:25.676Z,7.81
2022-11-24T21:36:15.298Z,7.91
2022-11-24T21:39:04.719Z,8.05
2022-11-24T21:41:52.698Z,7.93
2022-11-24T21:44:40.591Z,8.14
2022-11-24T21:47:29.802Z,8.11
2022-11-24T21:50:17.714Z,8.15
2022-11-24T21:53:05.634Z,8.34
2022-11-24T21:55:56.745Z,8.23
2022-11-24T21:58:45.700Z,8.26
2022-11-24T22:01:33.741Z,8.27
2022-11-24T22:04:23.079Z,8.45
2022-11-24T22:07:10.975Z,8.51
2022-11-24T22:09:59.106Z,8.13
2022-11-24T22:12:46.988Z,8.16
2022-11-24T22:15:34.961Z,7.74
2022-11-24T22:18:22.862Z,7.67
2022-11-24T22:21:14.668Z,7.40
2022-11-24T22:24:03.361Z,7.24
2022-11-24T22:26:51.607Z,7.17
2022-11-24T22:29:39.509Z,7.42
2022-11-24T22:32:27.783Z,7.21
2022-11-24T22:35:15.789Z,7.00
2022-11-24T22:38:05.017Z,6.84
2022-11-24T22:40:52.974Z,6.70
2022-11-24T22:43:42.656Z,6.62
2022-11-24T22:46:31.796Z,6.57
2022-11-24T22:49:19.716Z,6.44
2022-11-24T22:52:07.621Z,6.45
2022-11-24T22:54:56.995Z,6.53
2022-11-24T22:57:48.074Z,6.48
2022-11-24T23:00:37.326Z,6.45
2022-11-24T23:03:25.340Z,6.40
2022-11-24T23:06:15.173Z,6.41
2022-11-24T23:09:04.677Z,6.09
2022-11-24T23:11:53.941Z,6.22
2022-11-24T23:14:41.810Z,6.22
2022-11-24T23:17:29.735Z,5.99
2022-11-24T23:20:17.682Z,6.03
2022-11-24T23:23:05.673Z,5.92
2022-11-24T23:25:54.591Z,5.85
2022-11-24T23:28:44.148Z,5.80
2022-11-24T23:31:32.978Z,5.61
2022-11-24T23:34:20.944Z,5.75
2022-11-24T23:37:08.840Z,5.80
2022-11-24T23:39:56.740Z,5.69
2022-11-24T23:42:47.594Z,5.69
2022-11-24T23:45:36.880Z,5.67
2022-11-24T23:48:24.840Z,5.69
2022-11-24T23:51:14.460Z,5.72
2022-11-24T23:54:02.434Z,5.99
2022-11-24T23:56:50.334Z,5.92
2022-11-24T23:59:38.256Z,5.95
